sensor_id;sensor_type;location;lat;lon;timestamp;P1;durP1;ratioP1;P2;durP2;ratioP2
317;SDS011;146;53.448;10.228;2022-08-19T00:00:49;10.70;;;9.60;;
317;SDS011;146;53.448;10.228;2022-08-19T00:03:17;9.03;;;8.10;;
317;SDS011;146;53.448;10.228;2022-08-19T00:05:44;8.47;;;7.67;;
317;SDS011;146;53.448;10.228;2022-08-19T00:08:11;10.30;;;9.40;;
317;SDS011;146;53.448;10.228;2022-08-19T00:10:38;10.53;;;9.40;;
317;SDS011;146;53.448;10.228;2022-08-19T00:13:05;10.83;;;9.73;;
317;SDS011;146;53.448;10.228;2022-08-19T00:15:32;11.13;;;10.17;;
317;SDS011;146;53.448;10.228;2022-08-19T00:18:00;9.13;;;8.23;;
317;SDS011;146;53.448;10.228;2022-08-19T00:20:28;9.73;;;8.73;;
317;SDS011;146;53.448;10.228;2022-08-19T00:22:55;11.90;;;10.80;;
317;SDS011;146;53.448;10.228;2022-08-19T00:25:22;9.73;;;8.90;;
317;SDS011;146;53.448;10.228;2022-08-19T00:27:49;9.40;;;8.60;;
317;SDS011;146;53.448;10.228;2022-08-19T00:30:16;12.23;;;10.93;;
317;SDS011;146;53.448;10.228;2022-08-19T00:32:43;9.57;;;8.77;;
317;SDS011;146;53.448;10.228;2022-08-19T00:35:10;10.13;;;9.13;;
317;SDS011;146;53.448;10.228;2022-08-19T00:37:38;12.57;;;10.93;;
317;SDS011;146;53.448;10.228;2022-08-19T00:40:08;10.53;;;9.53;;
317;SDS011;146;53.448;10.228;2022-08-19T00:42:38;11.80;;;10.70;;
317;SDS011;146;53.448;10.228;2022-08-19T00:45:09;11.00;;;9.90;;
317;SDS011;146;53.448;10.228;2022-08-19T00:47:39;11.90;;;10.20;;
317;SDS011;146;53.448;10.228;2022-08-19T00:50:06;13.87;;;12.53;;
317;SDS011;146;53.448;10.228;2022-08-19T00:52:36;11.90;;;10.70;;
317;SDS011;146;53.448;10.228;2022-08-19T00:55:10;13.00;;;11.00;;
317;SDS011;146;53.448;10.228;2022-08-19T00:57:40;14.60;;;13.10;;
317;SDS011;146;53.448;10.228;2022-08-19T01:00:12;16.73;;;12.50;;
317;SDS011;146;53.448;10.228;2022-08-19T01:05:08;15.00;;;13.43;;
317;SDS011;146;53.448;10.228;2022-08-19T01:07:37;14.43;;;12.93;;
317;SDS011;146;53.448;10.228;2022-08-19T01:10:08;13.57;;;12.13;;
317;SDS011;146;53.448;10.228;2022-08-19T01:12:38;12.50;;;11.20;;
317;SDS011;146;53.448;10.228;2022-08-19T01:15:06;14.40;;;11.13;;
317;SDS011;146;53.448;10.228;2022-08-19T01:17:36;11.60;;;10.57;;
317;SDS011;146;53.448;10.228;2022-08-19T01:20:08;13.20;;;11.90;;
317;SDS011;146;53.448;10.228;2022-08-19T01:22:40;12.43;;;11.37;;
317;SDS011;146;53.448;10.228;2022-08-19T01:25:09;11.63;;;10.63;;
317;SDS011;146;53.448;10.228;2022-08-19T01:27:37;11.80;;;10.60;;
317;SDS011;146;53.448;10.228;2022-08-19T01:30:06;12.93;;;11.50;;
317;SDS011;146;53.448;10.228;2022-08-19T01:32:33;11.20;;;10.13;;
317;SDS011;146;53.448;10.228;2022-08-19T01:35:01;11.57;;;10.47;;
317;SDS011;146;53.448;10.228;2022-08-19T01:37:28;11.27;;;9.90;;
317;SDS011;146;53.448;10.228;2022-08-19T01:39:57;12.50;;;11.30;;
317;SDS011;146;53.448;10.228;2022-08-19T01:42:24;12.23;;;10.90;;
317;SDS011;146;53.448;10.228;2022-08-19T01:44:51;14.83;;;13.27;;
317;SDS011;146;53.448;10.228;2022-08-19T01:47:17;14.07;;;11.60;;
317;SDS011;146;53.448;10.228;2022-08-19T01:49:44;11.93;;;10.80;;
317;SDS011;146;53.448;10.228;2022-08-19T01:52:11;34.40;;;13.23;;
317;SDS011;146;53.448;10.228;2022-08-19T01:54:38;15.10;;;13.43;;
317;SDS011;146;53.448;10.228;2022-08-19T01:57:06;13.73;;;12.13;;
317;SDS011;146;53.448;10.228;2022-08-19T01:59:37;12.90;;;11.60;;
317;SDS011;146;53.448;10.228;2022-08-19T02:02:05;14.70;;;13.20;;
317;SDS011;146;53.448;10.228;2022-08-19T02:04:32;13.37;;;11.97;;
317;SDS011;146;53.448;10.228;2022-08-19T02:06:59;13.57;;;12.17;;
317;SDS011;146;53.448;10.228;2022-08-19T02:09:26;14.10;;;12.60;;
317;SDS011;146;53.448;10.228;2022-08-19T02:11:52;14.03;;;12.50;;
317;SDS011;146;53.448;10.228;2022-08-19T02:14:21;14.40;;;12.90;;
317;SDS011;146;53.448;10.228;2022-08-19T02:16:47;15.60;;;14.00;;
317;SDS011;146;53.448;10.228;2022-08-19T02:19:14;15.30;;;13.10;;
317;SDS011;146;53.448;10.228;2022-08-19T02:21:41;16.57;;;13.83;;
317;SDS011;146;53.448;10.228;2022-08-19T02:24:08;19.17;;;14.13;;
317;SDS011;146;53.448;10.228;2022-08-19T02:26:35;19.40;;;15.27;;
317;SDS011;146;53.448;10.228;2022-08-19T02:29:02;18.63;;;14.50;;
317;SDS011;146;53.448;10.228;2022-08-19T02:31:30;18.27;;;14.07;;
317;SDS011;146;53.448;10.228;2022-08-19T02:33:58;18.00;;;14.47;;
317;SDS011;146;53.448;10.228;2022-08-19T02:36:25;16.70;;;13.77;;
317;SDS011;146;53.448;10.228;2022-08-19T02:38:52;17.00;;;15.33;;
317;SDS011;146;53.448;10.228;2022-08-19T02:41:20;14.10;;;12.53;;
317;SDS011;146;53.448;10.228;2022-08-19T02:43:49;13.80;;;12.07;;
317;SDS011;146;53.448;10.228;2022-08-19T02:46:17;14.10;;;12.20;;
317;SDS011;146;53.448;10.228;2022-08-19T02:48:47;21.03;;;13.40;;
317;SDS011;146;53.448;10.228;2022-08-19T02:51:17;14.47;;;12.97;;
317;SDS011;146;53.448;10.228;2022-08-19T02:53:45;13.83;;;11.23;;
317;SDS011;146;53.448;10.228;2022-08-19T02:56:12;14.70;;;12.00;;
317;SDS011;146;53.448;10.228;2022-08-19T02:58:39;15.27;;;12.13;;
317;SDS011;146;53.448;10.228;2022-08-19T03:01:08;13.73;;;12.30;;
317;SDS011;146;53.448;10.228;2022-08-19T03:03:36;13.70;;;11.90;;
317;SDS011;146;53.448;10.228;2022-08-19T03:06:05;13.27;;;11.20;;
317;SDS011;146;53.448;10.228;2022-08-19T03:08:34;11.50;;;10.37;;
317;SDS011;146;53.448;10.228;2022-08-19T03:11:01;12.00;;;10.67;;
317;SDS011;146;53.448;10.228;2022-08-19T03:13:28;11.93;;;10.67;;
317;SDS011;146;53.448;10.228;2022-08-19T03:15:55;13.43;;;11.90;;
317;SDS011;146;53.448;10.228;2022-08-19T03:18:22;13.30;;;11.47;;
317;SDS011;146;53.448;10.228;2022-08-19T03:20:49;13.50;;;11.50;;
317;SDS011;146;53.448;10.228;2022-08-19T03:23:20;13.03;;;11.53;;
317;SDS011;146;53.448;10.228;2022-08-19T03:25:48;12.00;;;10.73;;
317;SDS011;146;53.448;10.228;2022-08-19T03:28:16;13.27;;;10.83;;
317;SDS011;146;53.448;10.228;2022-08-19T03:30:54;12.80;;;11.50;;
317;SDS011;146;53.448;10.228;2022-08-19T03:33:22;14.70;;;13.10;;
317;SDS011;146;53.448;10.228;2022-08-19T03:35:59;11.77;;;10.60;;
317;SDS011;146;53.448;10.228;2022-08-19T03:38:32;13.23;;;11.80;;
317;SDS011;146;53.448;10.228;2022-08-19T03:41:01;15.60;;;12.30;;
317;SDS011;146;53.448;10.228;2022-08-19T03:43:31;14.43;;;13.00;;
317;SDS011;146;53.448;10.228;2022-08-19T03:46:00;15.43;;;13.83;;
317;SDS011;146;53.448;10.228;2022-08-19T03:48:29;16.20;;;13.67;;
317;SDS011;146;53.448;10.228;2022-08-19T03:50:57;14.67;;;12.90;;
317;SDS011;146;53.448;10.228;2022-08-19T03:53:25;16.63;;;12.37;;
317;SDS011;146;53.448;10.228;2022-08-19T03:55:54;16.00;;;14.30;;
317;SDS011;146;53.448;10.228;2022-08-19T03:58:21;16.10;;;13.20;;
317;SDS011;146;53.448;10.228;2022-08-19T04:00:48;15.70;;;13.70;;
317;SDS011;146;53.448;10.228;2022-08-19T04:03:15;16.90;;;13.63;;
317;SDS011;146;53.448;10.228;2022-08-19T04:05:44;20.27;;;14.17;;
317;SDS011;146;53.448;10.228;2022-08-19T04:08:11;21.10;;;13.33;;
317;SDS011;146;53.448;10.228;2022-08-19T04:10:40;22.80;;;15.50;;
317;SDS011;146;53.448;10.228;2022-08-19T04:13:08;19.20;;;14.40;;
317;SDS011;146;53.448;10.228;2022-08-19T04:15:38;15.40;;;12.97;;
317;SDS011;146;53.448;10.228;2022-08-19T04:18:07;16.30;;;13.10;;
317;SDS011;146;53.448;10.228;2022-08-19T04:20:38;15.00;;;13.30;;
317;SDS011;146;53.448;10.228;2022-08-19T04:23:09;19.33;;;15.57;;
317;SDS011;146;53.448;10.228;2022-08-19T04:25:37;20.20;;;14.33;;
317;SDS011;146;53.448;10.228;2022-08-19T04:28:04;17.87;;;13.33;;
317;SDS011;146;53.448;10.228;2022-08-19T04:30:38;17.83;;;16.00;;
317;SDS011;146;53.448;10.228;2022-08-19T04:33:07;20.37;;;15.23;;
317;SDS011;146;53.448;10.228;2022-08-19T04:35:35;22.07;;;16.73;;
317;SDS011;146;53.448;10.228;2022-08-19T04:38:03;21.20;;;17.10;;
317;SDS011;146;53.448;10.228;2022-08-19T04:40:31;21.47;;;15.90;;
317;SDS011;146;53.448;10.228;2022-08-19T04:43:15;18.40;;;13.67;;
317;SDS011;146;53.448;10.228;2022-08-19T04:45:43;21.37;;;15.70;;
317;SDS011;146;53.448;10.228;2022-08-19T04:48:11;21.10;;;17.07;;
317;SDS011;146;53.448;10.228;2022-08-19T04:50:39;22.60;;;14.87;;
317;SDS011;146;53.448;10.228;2022-08-19T04:53:07;23.63;;;17.83;;
317;SDS011;146;53.448;10.228;2022-08-19T04:55:37;22.13;;;16.00;;
317;SDS011;146;53.448;10.228;2022-08-19T04:58:05;24.20;;;15.93;;
317;SDS011;146;53.448;10.228;2022-08-19T05:00:31;21.80;;;15.17;;
317;SDS011;146;53.448;10.228;2022-08-19T05:03:00;23.70;;;16.20;;
317;SDS011;146;53.448;10.228;2022-08-19T05:05:27;18.17;;;14.90;;
317;SDS011;146;53.448;10.228;2022-08-19T05:07:54;20.93;;;14.90;;
317;SDS011;146;53.448;10.228;2022-08-19T05:10:20;19.93;;;15.70;;
317;SDS011;146;53.448;10.228;2022-08-19T05:12:47;21.63;;;14.80;;
317;SDS011;146;53.448;10.228;2022-08-19T05:15:14;15.43;;;13.23;;
317;SDS011;146;53.448;10.228;2022-08-19T05:17:42;17.77;;;15.90;;
317;SDS011;146;53.448;10.228;2022-08-19T05:20:30;18.70;;;14.60;;
317;SDS011;146;53.448;10.228;2022-08-19T05:23:14;20.40;;;16.20;;
317;SDS011;146;53.448;10.228;2022-08-19T05:25:42;18.23;;;14.17;;
317;SDS011;146;53.448;10.228;2022-08-19T05:28:09;19.80;;;15.37;;
317;SDS011;146;53.448;10.228;2022-08-19T05:30:36;19.50;;;15.27;;
317;SDS011;146;53.448;10.228;2022-08-19T05:33:03;19.87;;;15.10;;
317;SDS011;146;53.448;10.228;2022-08-19T05:35:31;21.13;;;16.43;;
317;SDS011;146;53.448;10.228;2022-08-19T05:37:57;26.27;;;16.27;;
317;SDS011;146;53.448;10.228;2022-08-19T05:40:24;23.70;;;16.20;;
317;SDS011;146;53.448;10.228;2022-08-19T05:42:51;22.40;;;16.47;;
317;SDS011;146;53.448;10.228;2022-08-19T05:45:18;24.80;;;16.97;;
317;SDS011;146;53.448;10.228;2022-08-19T05:47:46;21.97;;;16.53;;
317;SDS011;146;53.448;10.228;2022-08-19T05:50:13;23.27;;;17.53;;
317;SDS011;146;53.448;10.228;2022-08-19T05:52:41;24.47;;;17.40;;
317;SDS011;146;53.448;10.228;2022-08-19T05:55:08;25.43;;;15.77;;
317;SDS011;146;53.448;10.228;2022-08-19T05:57:35;25.47;;;19.93;;
317;SDS011;146;53.448;10.228;2022-08-19T06:00:03;22.50;;;16.90;;
317;SDS011;146;53.448;10.228;2022-08-19T06:02:34;27.37;;;18.90;;
317;SDS011;146;53.448;10.228;2022-08-19T06:05:02;26.37;;;19.83;;
317;SDS011;146;53.448;10.228;2022-08-19T06:07:31;26.70;;;19.30;;
317;SDS011;146;53.448;10.228;2022-08-19T06:09:59;27.47;;;21.20;;
317;SDS011;146;53.448;10.228;2022-08-19T06:12:25;31.10;;;21.53;;
317;SDS011;146;53.448;10.228;2022-08-19T06:14:55;30.80;;;20.00;;
317;SDS011;146;53.448;10.228;2022-08-19T06:17:22;26.33;;;19.93;;
317;SDS011;146;53.448;10.228;2022-08-19T06:19:50;28.70;;;20.47;;
317;SDS011;146;53.448;10.228;2022-08-19T06:22:17;26.30;;;19.90;;
317;SDS011;146;53.448;10.228;2022-08-19T06:24:44;28.00;;;20.03;;
317;SDS011;146;53.448;10.228;2022-08-19T06:27:12;30.90;;;21.43;;
317;SDS011;146;53.448;10.228;2022-08-19T06:29:40;24.17;;;19.17;;
317;SDS011;146;53.448;10.228;2022-08-19T06:32:07;26.33;;;19.07;;
317;SDS011;146;53.448;10.228;2022-08-19T06:34:34;27.60;;;21.47;;
317;SDS011;146;53.448;10.228;2022-08-19T06:37:01;27.07;;;21.00;;
317;SDS011;146;53.448;10.228;2022-08-19T06:39:35;24.23;;;19.53;;
317;SDS011;146;53.448;10.228;2022-08-19T06:42:04;29.60;;;20.87;;
317;SDS011;146;53.448;10.228;2022-08-19T06:44:36;32.40;;;21.20;;
317;SDS011;146;53.448;10.228;2022-08-19T06:47:05;24.63;;;19.60;;
317;SDS011;146;53.448;10.228;2022-08-19T06:49:36;27.70;;;20.57;;
317;SDS011;146;53.448;10.228;2022-08-19T06:52:04;31.73;;;22.00;;
317;SDS011;146;53.448;10.228;2022-08-19T06:54:31;29.40;;;20.77;;
317;SDS011;146;53.448;10.228;2022-08-19T06:57:01;28.03;;;20.23;;
317;SDS011;146;53.448;10.228;2022-08-19T06:59:29;27.50;;;19.63;;
317;SDS011;146;53.448;10.228;2022-08-19T07:02:00;28.67;;;19.97;;
317;SDS011;146;53.448;10.228;2022-08-19T07:04:30;29.10;;;21.27;;
317;SDS011;146;53.448;10.228;2022-08-19T07:06:59;24.07;;;19.40;;
317;SDS011;146;53.448;10.228;2022-08-19T07:09:28;22.80;;;16.47;;
317;SDS011;146;53.448;10.228;2022-08-19T07:11:55;28.00;;;21.23;;
317;SDS011;146;53.448;10.228;2022-08-19T07:14:23;24.07;;;18.33;;
317;SDS011;146;53.448;10.228;2022-08-19T07:16:52;23.80;;;18.63;;
317;SDS011;146;53.448;10.228;2022-08-19T07:19:22;26.20;;;19.00;;
317;SDS011;146;53.448;10.228;2022-08-19T07:21:52;24.50;;;18.50;;
317;SDS011;146;53.448;10.228;2022-08-19T07:24:20;25.03;;;19.87;;
317;SDS011;146;53.448;10.228;2022-08-19T07:26:49;27.03;;;19.03;;
317;SDS011;146;53.448;10.228;2022-08-19T07:29:19;27.17;;;18.30;;
317;SDS011;146;53.448;10.228;2022-08-19T07:31:48;23.90;;;18.73;;
317;SDS011;146;53.448;10.228;2022-08-19T07:34:15;27.17;;;18.40;;
317;SDS011;146;53.448;10.228;2022-08-19T07:36:45;24.30;;;19.23;;
317;SDS011;146;53.448;10.228;2022-08-19T07:39:13;21.87;;;16.63;;
317;SDS011;146;53.448;10.228;2022-08-19T07:41:41;22.97;;;16.83;;
317;SDS011;146;53.448;10.228;2022-08-19T07:44:08;20.60;;;15.53;;
317;SDS011;146;53.448;10.228;2022-08-19T07:46:36;21.13;;;17.27;;
317;SDS011;146;53.448;10.228;2022-08-19T07:49:05;24.37;;;17.30;;
317;SDS011;146;53.448;10.228;2022-08-19T07:51:34;27.73;;;20.53;;
317;SDS011;146;53.448;10.228;2022-08-19T07:54:03;25.53;;;19.17;;
317;SDS011;146;53.448;10.228;2022-08-19T07:56:30;31.43;;;20.27;;
317;SDS011;146;53.448;10.228;2022-08-19T07:58:56;26.33;;;20.90;;
317;SDS011;146;53.448;10.228;2022-08-19T08:01:24;29.73;;;21.10;;
317;SDS011;146;53.448;10.228;2022-08-19T08:03:53;27.83;;;20.30;;
317;SDS011;146;53.448;10.228;2022-08-19T08:06:39;27.67;;;20.30;;
317;SDS011;146;53.448;10.228;2022-08-19T08:09:26;32.43;;;20.73;;
317;SDS011;146;53.448;10.228;2022-08-19T08:11:57;31.17;;;19.27;;
317;SDS011;146;53.448;10.228;2022-08-19T08:14:27;26.47;;;19.40;;
317;SDS011;146;53.448;10.228;2022-08-19T08:16:57;24.53;;;20.73;;
317;SDS011;146;53.448;10.228;2022-08-19T08:19:25;31.37;;;18.27;;
317;SDS011;146;53.448;10.228;2022-08-19T08:21:53;29.80;;;20.03;;
317;SDS011;146;53.448;10.228;2022-08-19T08:24:22;25.10;;;19.30;;
317;SDS011;146;53.448;10.228;2022-08-19T08:26:50;26.73;;;19.37;;
317;SDS011;146;53.448;10.228;2022-08-19T08:29:17;22.03;;;17.73;;
317;SDS011;146;53.448;10.228;2022-08-19T08:31:44;26.23;;;18.67;;
317;SDS011;146;53.448;10.228;2022-08-19T08:34:12;27.30;;;19.27;;
317;SDS011;146;53.448;10.228;2022-08-19T08:36:41;23.17;;;18.77;;
317;SDS011;146;53.448;10.228;2022-08-19T08:39:10;22.00;;;17.47;;
317;SDS011;146;53.448;10.228;2022-08-19T08:41:41;22.17;;;18.10;;
317;SDS011;146;53.448;10.228;2022-08-19T08:44:20;20.00;;;15.20;;
317;SDS011;146;53.448;10.228;2022-08-19T08:46:54;21.60;;;16.83;;
317;SDS011;146;53.448;10.228;2022-08-19T08:49:26;23.63;;;15.80;;
317;SDS011;146;53.448;10.228;2022-08-19T08:51:59;19.60;;;17.47;;
317;SDS011;146;53.448;10.228;2022-08-19T08:54:32;19.40;;;14.17;;
317;SDS011;146;53.448;10.228;2022-08-19T08:57:02;18.23;;;13.43;;
317;SDS011;146;53.448;10.228;2022-08-19T08:59:35;20.67;;;14.70;;
317;SDS011;146;53.448;10.228;2022-08-19T09:02:06;19.73;;;13.77;;
317;SDS011;146;53.448;10.228;2022-08-19T09:04:33;17.63;;;12.70;;
317;SDS011;146;53.448;10.228;2022-08-19T09:07:04;15.30;;;12.23;;
317;SDS011;146;53.448;10.228;2022-08-19T09:09:43;10.83;;;9.73;;
317;SDS011;146;53.448;10.228;2022-08-19T09:12:14;12.67;;;11.37;;
317;SDS011;146;53.448;10.228;2022-08-19T09:14:48;12.33;;;10.60;;
317;SDS011;146;53.448;10.228;2022-08-19T09:17:17;12.30;;;11.03;;
317;SDS011;146;53.448;10.228;2022-08-19T09:19:56;13.23;;;11.20;;
317;SDS011;146;53.448;10.228;2022-08-19T09:22:25;12.67;;;11.33;;
317;SDS011;146;53.448;10.228;2022-08-19T09:24:52;12.73;;;11.43;;
317;SDS011;146;53.448;10.228;2022-08-19T09:27:19;13.33;;;12.00;;
317;SDS011;146;53.448;10.228;2022-08-19T09:29:50;15.23;;;12.77;;
317;SDS011;146;53.448;10.228;2022-08-19T09:32:17;13.87;;;12.47;;
317;SDS011;146;53.448;10.228;2022-08-19T09:34:44;17.93;;;12.97;;
317;SDS011;146;53.448;10.228;2022-08-19T09:37:11;14.43;;;12.10;;
317;SDS011;146;53.448;10.228;2022-08-19T09:39:38;19.80;;;13.53;;
317;SDS011;146;53.448;10.228;2022-08-19T09:42:07;19.30;;;15.10;;
317;SDS011;146;53.448;10.228;2022-08-19T09:44:37;22.70;;;18.37;;
317;SDS011;146;53.448;10.228;2022-08-19T09:47:05;22.30;;;15.57;;
317;SDS011;146;53.448;10.228;2022-08-19T09:49:33;21.73;;;16.47;;
317;SDS011;146;53.448;10.228;2022-08-19T09:52:00;20.27;;;15.70;;
317;SDS011;146;53.448;10.228;2022-08-19T09:54:27;21.93;;;16.93;;
317;SDS011;146;53.448;10.228;2022-08-19T09:56:54;25.20;;;17.60;;
317;SDS011;146;53.448;10.228;2022-08-19T09:59:23;22.80;;;16.70;;
317;SDS011;146;53.448;10.228;2022-08-19T10:01:50;24.57;;;17.83;;
317;SDS011;146;53.448;10.228;2022-08-19T10:04:18;21.60;;;17.30;;
317;SDS011;146;53.448;10.228;2022-08-19T10:06:46;21.37;;;16.30;;
317;SDS011;146;53.448;10.228;2022-08-19T10:09:14;18.90;;;15.50;;
317;SDS011;146;53.448;10.228;2022-08-19T10:11:43;19.87;;;16.53;;
317;SDS011;146;53.448;10.228;2022-08-19T10:14:13;23.63;;;18.33;;
317;SDS011;146;53.448;10.228;2022-08-19T10:16:40;21.50;;;15.93;;
317;SDS011;146;53.448;10.228;2022-08-19T10:19:07;21.77;;;16.30;;
317;SDS011;146;53.448;10.228;2022-08-19T10:21:36;24.23;;;18.63;;
317;SDS011;146;53.448;10.228;2022-08-19T10:24:04;25.97;;;17.10;;
317;SDS011;146;53.448;10.228;2022-08-19T10:26:33;22.80;;;16.33;;
317;SDS011;146;53.448;10.228;2022-08-19T10:29:02;21.00;;;16.40;;
317;SDS011;146;53.448;10.228;2022-08-19T10:31:31;21.33;;;15.43;;
317;SDS011;146;53.448;10.228;2022-08-19T10:33:59;18.83;;;16.07;;
317;SDS011;146;53.448;10.228;2022-08-19T10:36:27;30.30;;;18.07;;
317;SDS011;146;53.448;10.228;2022-08-19T10:38:57;21.50;;;16.67;;
317;SDS011;146;53.448;10.228;2022-08-19T10:41:27;18.07;;;15.83;;
317;SDS011;146;53.448;10.228;2022-08-19T10:43:56;20.10;;;17.67;;
317;SDS011;146;53.448;10.228;2022-08-19T10:46:25;23.03;;;16.83;;
317;SDS011;146;53.448;10.228;2022-08-19T10:48:53;21.33;;;16.90;;
317;SDS011;146;53.448;10.228;2022-08-19T10:51:20;24.30;;;16.93;;
317;SDS011;146;53.448;10.228;2022-08-19T10:54:06;20.60;;;16.83;;
317;SDS011;146;53.448;10.228;2022-08-19T10:56:33;20.43;;;15.70;;
317;SDS011;146;53.448;10.228;2022-08-19T10:59:17;18.00;;;15.53;;
317;SDS011;146;53.448;10.228;2022-08-19T11:01:46;16.10;;;13.90;;
317;SDS011;146;53.448;10.228;2022-08-19T11:04:14;21.03;;;16.23;;
317;SDS011;146;53.448;10.228;2022-08-19T11:06:42;20.10;;;17.17;;
317;SDS011;146;53.448;10.228;2022-08-19T11:09:13;21.17;;;17.10;;
317;SDS011;146;53.448;10.228;2022-08-19T11:11:41;18.47;;;16.43;;
317;SDS011;146;53.448;10.228;2022-08-19T11:14:08;17.77;;;14.97;;
317;SDS011;146;53.448;10.228;2022-08-19T11:16:37;19.47;;;16.40;;
317;SDS011;146;53.448;10.228;2022-08-19T11:19:04;20.23;;;15.50;;
317;SDS011;146;53.448;10.228;2022-08-19T11:21:34;17.10;;;14.60;;
317;SDS011;146;53.448;10.228;2022-08-19T11:24:03;20.37;;;15.53;;
317;SDS011;146;53.448;10.228;2022-08-19T11:26:33;21.80;;;16.43;;
317;SDS011;146;53.448;10.228;2022-08-19T11:29:01;19.10;;;15.43;;
317;SDS011;146;53.448;10.228;2022-08-19T11:31:30;17.13;;;15.30;;
317;SDS011;146;53.448;10.228;2022-08-19T11:34:01;18.63;;;15.90;;
317;SDS011;146;53.448;10.228;2022-08-19T11:39:26;19.33;;;15.27;;
317;SDS011;146;53.448;10.228;2022-08-19T11:48:37;17.43;;;15.33;;
317;SDS011;146;53.448;10.228;2022-08-19T11:51:05;17.30;;;15.60;;
317;SDS011;146;53.448;10.228;2022-08-19T11:53:34;21.33;;;17.20;;
317;SDS011;146;53.448;10.228;2022-08-19T11:56:02;21.30;;;16.20;;
317;SDS011;146;53.448;10.228;2022-08-19T11:58:29;17.83;;;16.00;;
317;SDS011;146;53.448;10.228;2022-08-19T12:00:57;17.70;;;14.67;;
317;SDS011;146;53.448;10.228;2022-08-19T12:03:24;20.03;;;16.80;;
317;SDS011;146;53.448;10.228;2022-08-19T12:05:52;16.43;;;14.73;;
317;SDS011;146;53.448;10.228;2022-08-19T12:08:18;22.23;;;16.43;;
317;SDS011;146;53.448;10.228;2022-08-19T12:10:45;17.47;;;15.53;;
317;SDS011;146;53.448;10.228;2022-08-19T12:13:12;18.03;;;15.97;;
317;SDS011;146;53.448;10.228;2022-08-19T12:15:45;20.60;;;16.50;;
317;SDS011;146;53.448;10.228;2022-08-19T12:18:13;18.43;;;15.50;;
317;SDS011;146;53.448;10.228;2022-08-19T12:20:40;18.97;;;16.90;;
317;SDS011;146;53.448;10.228;2022-08-19T12:23:12;20.40;;;16.47;;
317;SDS011;146;53.448;10.228;2022-08-19T12:25:43;22.00;;;16.40;;
317;SDS011;146;53.448;10.228;2022-08-19T12:28:15;18.73;;;15.80;;
317;SDS011;146;53.448;10.228;2022-08-19T12:30:41;21.70;;;15.47;;
317;SDS011;146;53.448;10.228;2022-08-19T12:33:08;17.90;;;15.87;;
317;SDS011;146;53.448;10.228;2022-08-19T12:35:38;18.93;;;16.50;;
317;SDS011;146;53.448;10.228;2022-08-19T12:38:06;17.83;;;15.93;;
317;SDS011;146;53.448;10.228;2022-08-19T12:40:34;18.03;;;15.53;;
317;SDS011;146;53.448;10.228;2022-08-19T12:43:01;18.83;;;16.37;;
317;SDS011;146;53.448;10.228;2022-08-19T12:45:28;17.77;;;14.53;;
317;SDS011;146;53.448;10.228;2022-08-19T12:47:54;18.40;;;16.50;;
317;SDS011;146;53.448;10.228;2022-08-19T12:50:21;16.77;;;15.07;;
317;SDS011;146;53.448;10.228;2022-08-19T12:52:48;16.83;;;14.30;;
317;SDS011;146;53.448;10.228;2022-08-19T12:55:15;20.30;;;15.77;;
317;SDS011;146;53.448;10.228;2022-08-19T12:57:45;15.03;;;13.30;;
317;SDS011;146;53.448;10.228;2022-08-19T13:00:14;16.70;;;14.90;;
317;SDS011;146;53.448;10.228;2022-08-19T13:02:44;19.00;;;14.10;;
317;SDS011;146;53.448;10.228;2022-08-19T13:05:13;17.33;;;15.00;;
317;SDS011;146;53.448;10.228;2022-08-19T13:07:41;16.60;;;14.60;;
317;SDS011;146;53.448;10.228;2022-08-19T13:10:10;18.23;;;16.43;;
317;SDS011;146;53.448;10.228;2022-08-19T13:12:38;16.97;;;15.20;;
317;SDS011;146;53.448;10.228;2022-08-19T13:15:08;14.87;;;13.27;;
317;SDS011;146;53.448;10.228;2022-08-19T13:17:35;15.97;;;14.37;;
317;SDS011;146;53.448;10.228;2022-08-19T13:20:03;17.73;;;15.83;;
317;SDS011;146;53.448;10.228;2022-08-19T13:22:32;15.20;;;13.70;;
317;SDS011;146;53.448;10.228;2022-08-19T13:25:00;16.73;;;13.57;;
317;SDS011;146;53.448;10.228;2022-08-19T13:27:27;16.27;;;14.63;;
317;SDS011;146;53.448;10.228;2022-08-19T13:29:55;14.90;;;13.30;;
317;SDS011;146;53.448;10.228;2022-08-19T13:32:41;15.63;;;14.03;;
317;SDS011;146;53.448;10.228;2022-08-19T13:35:25;16.83;;;15.07;;
317;SDS011;146;53.448;10.228;2022-08-19T13:37:52;18.13;;;13.90;;
317;SDS011;146;53.448;10.228;2022-08-19T13:40:19;15.53;;;13.93;;
317;SDS011;146;53.448;10.228;2022-08-19T13:42:49;15.30;;;13.70;;
317;SDS011;146;53.448;10.228;2022-08-19T13:45:18;17.40;;;14.27;;
317;SDS011;146;53.448;10.228;2022-08-19T13:47:48;14.37;;;12.87;;
317;SDS011;146;53.448;10.228;2022-08-19T13:50:17;14.60;;;13.30;;
317;SDS011;146;53.448;10.228;2022-08-19T13:52:45;15.87;;;14.27;;
317;SDS011;146;53.448;10.228;2022-08-19T13:55:13;13.97;;;12.60;;
317;SDS011;146;53.448;10.228;2022-08-19T13:57:41;14.13;;;12.73;;
317;SDS011;146;53.448;10.228;2022-08-19T14:00:09;13.07;;;11.83;;
317;SDS011;146;53.448;10.228;2022-08-19T14:02:39;14.77;;;13.33;;
317;SDS011;146;53.448;10.228;2022-08-19T14:05:09;14.83;;;13.40;;
317;SDS011;146;53.448;10.228;2022-08-19T14:07:38;12.80;;;11.53;;
317;SDS011;146;53.448;10.228;2022-08-19T14:10:05;13.80;;;12.40;;
317;SDS011;146;53.448;10.228;2022-08-19T14:12:34;13.47;;;12.20;;
317;SDS011;146;53.448;10.228;2022-08-19T14:15:02;14.53;;;12.20;;
317;SDS011;146;53.448;10.228;2022-08-19T14:17:29;13.30;;;12.10;;
317;SDS011;146;53.448;10.228;2022-08-19T14:19:56;12.63;;;11.40;;
317;SDS011;146;53.448;10.228;2022-08-19T14:22:32;14.30;;;12.90;;
317;SDS011;146;53.448;10.228;2022-08-19T14:24:59;13.57;;;12.30;;
317;SDS011;146;53.448;10.228;2022-08-19T14:27:26;12.03;;;10.70;;
317;SDS011;146;53.448;10.228;2022-08-19T14:29:53;13.83;;;12.43;;
317;SDS011;146;53.448;10.228;2022-08-19T14:32:20;14.73;;;13.13;;
317;SDS011;146;53.448;10.228;2022-08-19T14:34:47;11.97;;;10.80;;
317;SDS011;146;53.448;10.228;2022-08-19T14:37:14;15.77;;;13.67;;
317;SDS011;146;53.448;10.228;2022-08-19T14:39:42;13.77;;;12.40;;
317;SDS011;146;53.448;10.228;2022-08-19T14:42:09;14.13;;;12.80;;
317;SDS011;146;53.448;10.228;2022-08-19T14:44:39;15.33;;;13.93;;
317;SDS011;146;53.448;10.228;2022-08-19T14:47:06;16.50;;;14.87;;
317;SDS011;146;53.448;10.228;2022-08-19T14:49:34;13.37;;;11.97;;
317;SDS011;146;53.448;10.228;2022-08-19T14:52:01;12.93;;;11.63;;
317;SDS011;146;53.448;10.228;2022-08-19T14:54:29;14.67;;;13.23;;
317;SDS011;146;53.448;10.228;2022-08-19T14:56:57;13.70;;;12.50;;
317;SDS011;146;53.448;10.228;2022-08-19T14:59:24;14.70;;;13.40;;
317;SDS011;146;53.448;10.228;2022-08-19T15:01:51;14.43;;;13.33;;
317;SDS011;146;53.448;10.228;2022-08-19T15:04:17;14.87;;;13.47;;
317;SDS011;146;53.448;10.228;2022-08-19T15:06:44;14.73;;;13.43;;
317;SDS011;146;53.448;10.228;2022-08-19T15:09:11;13.30;;;12.20;;
317;SDS011;146;53.448;10.228;2022-08-19T15:11:38;14.00;;;12.73;;
317;SDS011;146;53.448;10.228;2022-08-19T15:14:06;13.53;;;12.27;;
317;SDS011;146;53.448;10.228;2022-08-19T15:16:35;14.60;;;13.30;;
317;SDS011;146;53.448;10.228;2022-08-19T15:19:02;12.97;;;11.73;;
317;SDS011;146;53.448;10.228;2022-08-19T15:21:29;14.20;;;12.90;;
317;SDS011;146;53.448;10.228;2022-08-19T15:23:57;13.67;;;12.47;;